createdAt,value
2022-08-30T00:01:22.744Z,77.90
2022-08-30T00:03:52.180Z,77.75
2022-08-30T00:06:21.115Z,77.84
2022-08-30T00:08:51.818Z,78.00
2022-08-30T00:11:21.948Z,78.00
2022-08-30T00:13:51.797Z,78.01
2022-08-30T00:16:21.044Z,77.99
2022-08-30T00:18:49.114Z,78.01
2022-08-30T00:21:16.995Z,78.11
2022-08-30T00:23:45.077Z,78.07
2022-08-30T00:26:13.137Z,78.15
2022-08-30T00:28:41.018Z,78.16
2022-08-30T00:31:08.939Z,78.28
2022-08-30T00:33:37.029Z,78.26
2022-08-30T00:36:05.279Z,78.17
2022-08-30T00:38:33.105Z,78.20
2022-08-30T00:41:01.627Z,78.25
2022-08-30T00:43:31.293Z,78.23
2022-08-30T00:46:04.418Z,78.36
2022-08-30T00:48:32.882Z,78.31
2022-08-30T00:51:02.653Z,78.37
2022-08-30T00:53:42.195Z,78.29
2022-08-30T00:56:10.467Z,78.23
2022-08-30T00:58:40.603Z,78.55
2022-08-30T01:01:09.632Z,78.64
2022-08-30T01:03:38.403Z,78.74
2022-08-30T01:06:08.144Z,78.62
2022-08-30T01:08:36.168Z,78.58
2022-08-30T01:11:04.342Z,78.86
2022-08-30T01:13:33.931Z,78.66
2022-08-30T01:16:02.601Z,78.78
2022-08-30T01:18:32.231Z,79.02
2022-08-30T01:21:18.946Z,79.01
2022-08-30T01:23:48.876Z,79.21
2022-08-30T01:26:20.681Z,79.14
2022-08-30T01:28:58.740Z,79.02
2022-08-30T01:31:26.754Z,79.13
2022-08-30T01:33:54.652Z,79.24
2022-08-30T01:36:22.881Z,79.15
2022-08-30T01:38:55.633Z,79.24
2022-08-30T01:41:31.004Z,79.47
2022-08-30T01:44:00.061Z,79.52
2022-08-30T01:46:31.317Z,79.77
2022-08-30T01:48:59.277Z,79.63
2022-08-30T01:51:27.732Z,79.74
2022-08-30T01:53:56.548Z,79.64
2022-08-30T01:56:26.020Z,79.64
2022-08-30T01:58:56.478Z,79.70
2022-08-30T02:01:28.865Z,79.66
2022-08-30T02:04:00.598Z,79.87
2022-08-30T02:06:28.955Z,79.72
2022-08-30T02:08:57.092Z,79.83
2022-08-30T02:11:25.648Z,79.83
2022-08-30T02:13:53.833Z,79.86
2022-08-30T02:16:23.145Z,79.94
2022-08-30T02:18:52.742Z,80.12
2022-08-30T02:21:21.324Z,80.04
2022-08-30T02:23:49.419Z,80.29
2022-08-30T02:26:18.080Z,80.40
2022-08-30T02:28:50.153Z,80.68
2022-08-30T02:31:20.654Z,80.93
2022-08-30T02:33:50.571Z,80.86
2022-08-30T02:36:18.852Z,80.80
2022-08-30T02:38:47.480Z,80.82
2022-08-30T02:41:15.433Z,80.87
2022-08-30T02:43:43.237Z,80.72
2022-08-30T02:46:11.374Z,80.79
2022-08-30T02:48:39.323Z,80.96
2022-08-30T02:51:11.510Z,80.81
2022-08-30T02:53:41.160Z,80.91
2022-08-30T02:56:09.259Z,81.04
2022-08-30T02:58:37.110Z,80.80
2022-08-30T03:01:05.938Z,80.93
2022-08-30T03:03:34.361Z,80.63
2022-08-30T03:06:03.595Z,80.38
2022-08-30T03:08:31.878Z,80.57
2022-08-30T03:11:00.307Z,80.73
2022-08-30T03:13:28.648Z,80.83
2022-08-30T03:15:57.028Z,80.86
2022-08-30T03:18:25.610Z,80.71
2022-08-30T03:20:54.637Z,80.75
2022-08-30T03:23:24.317Z,80.93
2022-08-30T03:25:53.632Z,80.62
2022-08-30T03:28:21.790Z,80.73
2022-08-30T03:30:49.685Z,80.69
2022-08-30T03:33:18.210Z,80.78
2022-08-30T03:35:46.724Z,80.86
2022-08-30T03:38:14.622Z,80.80
2022-08-30T03:40:42.609Z,80.66
2022-08-30T03:43:11.290Z,80.45
2022-08-30T03:45:40.648Z,80.48
2022-08-30T03:48:08.757Z,81.07
2022-08-30T03:50:37.202Z,80.89
2022-08-30T03:53:05.422Z,80.81
2022-08-30T03:55:33.596Z,80.62
2022-08-30T03:58:01.881Z,80.62
2022-08-30T04:00:29.901Z,80.95
2022-08-30T04:02:57.974Z,81.05
2022-08-30T04:05:27.316Z,80.78
2022-08-30T04:07:55.395Z,80.67
2022-08-30T04:10:23.724Z,80.68
2022-08-30T04:12:51.999Z,80.51
2022-08-30T04:15:20.543Z,80.29
2022-08-30T04:17:48.963Z,80.51
2022-08-30T04:20:17.068Z,80.62
2022-08-30T04:22:44.909Z,80.40
2022-08-30T04:25:15.707Z,80.65
2022-08-30T04:27:45.471Z,80.73
2022-08-30T04:30:15.379Z,80.61
2022-08-30T04:32:44.051Z,80.39
2022-08-30T04:35:12.542Z,80.26
2022-08-30T04:37:40.493Z,80.39
2022-08-30T04:40:09.037Z,80.60
2022-08-30T04:42:37.348Z,80.69
2022-08-30T04:45:06.589Z,80.60
2022-08-30T04:47:36.274Z,80.90
2022-08-30T04:50:05.337Z,80.73
2022-08-30T04:52:33.241Z,81.00
2022-08-30T04:55:01.309Z,81.50
2022-08-30T04:57:29.693Z,80.98
2022-08-30T04:59:57.963Z,81.32
2022-08-30T05:02:25.991Z,81.46
2022-08-30T05:05:14.208Z,81.72
2022-08-30T05:07:42.663Z,81.60
2022-08-30T05:10:11.476Z,81.99
2022-08-30T05:12:40.447Z,82.74
2022-08-30T05:15:08.824Z,83.39
2022-08-30T05:17:37.291Z,82.98
2022-08-30T05:20:06.202Z,81.82
2022-08-30T05:22:36.419Z,80.50
2022-08-30T05:25:05.361Z,79.53
2022-08-30T05:27:33.586Z,78.69
2022-08-30T05:30:06.554Z,77.64
2022-08-30T05:32:34.544Z,76.75
2022-08-30T05:35:04.671Z,76.05
2022-08-30T05:37:32.750Z,75.22
2022-08-30T05:40:01.243Z,74.33
2022-08-30T05:42:29.914Z,73.84
2022-08-30T05:44:57.761Z,72.76
2022-08-30T05:47:26.110Z,71.91
2022-08-30T05:49:54.641Z,71.02
2022-08-30T05:52:22.831Z,69.96
2022-08-30T05:54:55.832Z,68.28
2022-08-30T05:57:23.786Z,65.74
2022-08-30T05:59:51.732Z,63.03
2022-08-30T06:02:19.779Z,60.00
2022-08-30T06:04:47.829Z,57.02
2022-08-30T06:07:17.173Z,54.59
2022-08-30T06:09:45.997Z,52.26
2022-08-30T06:12:13.868Z,50.21
2022-08-30T06:14:41.757Z,48.57
2022-08-30T06:17:10.749Z,47.19
2022-08-30T06:19:38.621Z,46.27
2022-08-30T06:22:06.764Z,45.69
2022-08-30T06:24:56.526Z,42.66
2022-08-30T06:27:24.510Z,41.17
2022-08-30T06:29:52.586Z,40.45
2022-08-30T06:32:20.926Z,37.76
2022-08-30T06:34:49.040Z,37.66
2022-08-30T06:37:24.652Z,37.06
2022-08-30T06:39:58.198Z,37.10
2022-08-30T06:42:32.271Z,36.29
2022-08-30T06:45:10.305Z,35.99
2022-08-30T06:47:40.492Z,35.30
2022-08-30T06:50:12.034Z,34.78
2022-08-30T06:52:44.557Z,34.67
2022-08-30T06:55:13.586Z,34.61
2022-08-30T06:57:42.163Z,34.26
2022-08-30T07:00:11.708Z,34.45
2022-08-30T07:02:40.088Z,34.99
2022-08-30T07:05:08.712Z,34.92
2022-08-30T07:07:37.088Z,35.06
2022-08-30T07:10:06.246Z,33.93
2022-08-30T07:12:34.454Z,33.36
2022-08-30T07:15:03.383Z,33.47
2022-08-30T07:17:49.780Z,33.17
2022-08-30T07:20:18.823Z,31.95
2022-08-30T07:22:47.941Z,30.40
2022-08-30T07:25:18.079Z,29.70
2022-08-30T07:27:48.061Z,30.49
2022-08-30T07:30:16.131Z,30.86
2022-08-30T07:32:44.811Z,31.18
2022-08-30T07:35:12.906Z,32.87
2022-08-30T07:37:41.400Z,33.08
2022-08-30T07:40:09.651Z,32.37
2022-08-30T07:42:37.852Z,32.58
2022-08-30T07:45:06.091Z,33.36
2022-08-30T07:47:34.293Z,33.38
2022-08-30T07:50:02.624Z,32.98
2022-08-30T07:52:31.284Z,32.98
2022-08-30T07:54:59.705Z,33.35
2022-08-30T07:57:27.800Z,33.97
2022-08-30T07:59:55.650Z,34.31
2022-08-30T08:02:23.784Z,34.81
2022-08-30T08:04:51.768Z,35.49
2022-08-30T08:07:19.841Z,35.90
2022-08-30T08:09:47.857Z,36.33
2022-08-30T08:12:16.002Z,36.31
2022-08-30T08:14:44.050Z,37.07
2022-08-30T08:17:12.067Z,36.84
2022-08-30T08:19:39.926Z,37.31
2022-08-30T08:22:23.314Z,37.69
2022-08-30T08:24:51.245Z,38.40
2022-08-30T08:27:19.286Z,38.50
2022-08-30T08:29:47.416Z,38.19
2022-08-30T08:32:15.258Z,38.75
2022-08-30T08:34:46.573Z,37.84
2022-08-30T08:37:14.504Z,37.50
2022-08-30T08:39:42.509Z,38.96
2022-08-30T08:42:17.773Z,39.45
2022-08-30T08:44:51.166Z,39.04
2022-08-30T08:48:04.118Z,38.91
2022-08-30T08:50:32.481Z,38.61
2022-08-30T08:53:50.424Z,39.23
2022-08-30T08:56:19.412Z,39.58
2022-08-30T08:58:52.164Z,40.18
2022-08-30T09:01:21.404Z,39.92
2022-08-30T09:03:49.773Z,39.51
2022-08-30T09:06:29.987Z,38.73
2022-08-30T09:08:58.291Z,39.34
2022-08-30T09:11:31.090Z,39.12
2022-08-30T09:13:59.376Z,39.55
2022-08-30T09:16:46.020Z,40.17
2022-08-30T09:19:37.268Z,38.91
2022-08-30T09:22:26.367Z,38.90
2022-08-30T09:25:20.514Z,39.14
2022-08-30T09:27:49.717Z,38.56
2022-08-30T09:30:22.644Z,38.33
2022-08-30T09:32:54.868Z,38.64
2022-08-30T09:35:35.051Z,38.98
2022-08-30T09:38:09.245Z,38.73
2022-08-30T09:40:40.324Z,38.59
2022-08-30T09:43:18.408Z,38.46
2022-08-30T09:45:49.714Z,38.29
2022-08-30T09:48:22.992Z,38.14
2022-08-30T09:50:58.865Z,38.93
2022-08-30T09:53:33.122Z,39.51
2022-08-30T09:56:03.859Z,39.68
2022-08-30T09:58:45.531Z,38.87
2022-08-30T10:01:22.935Z,38.24
2022-08-30T10:04:02.355Z,38.16
2022-08-30T10:06:33.985Z,38.23
2022-08-30T10:09:07.907Z,38.46
2022-08-30T10:11:35.681Z,38.30
2022-08-30T10:14:12.559Z,37.52
2022-08-30T10:16:49.749Z,37.88
2022-08-30T10:19:21.325Z,38.03
2022-08-30T10:22:01.301Z,37.25
2022-08-30T10:24:38.351Z,37.07
2022-08-30T10:27:09.056Z,37.77
2022-08-30T10:29:49.335Z,38.21
2022-08-30T10:32:20.584Z,38.81
2022-08-30T10:35:09.189Z,39.30
2022-08-30T10:37:41.723Z,38.41
2022-08-30T10:40:33.951Z,38.09
2022-08-30T10:43:04.698Z,38.39
2022-08-30T10:45:36.253Z,38.48
2022-08-30T10:48:12.206Z,38.34
2022-08-30T10:50:47.261Z,38.78
2022-08-30T10:53:18.894Z,39.44
2022-08-30T10:56:07.949Z,40.33
2022-08-30T10:58:38.865Z,40.66
2022-08-30T11:01:28.553Z,40.64
2022-08-30T11:04:16.481Z,40.33
2022-08-30T11:07:05.921Z,40.09
2022-08-30T11:09:42.785Z,40.57
2022-08-30T11:12:13.545Z,42.02
2022-08-30T11:14:44.037Z,42.47
2022-08-30T11:17:27.351Z,42.59
2022-08-30T11:19:56.749Z,43.16
2022-08-30T11:22:24.907Z,43.35
2022-08-30T11:25:01.554Z,43.69
2022-08-30T11:27:44.173Z,44.20
2022-08-30T11:30:24.285Z,44.74
2022-08-30T11:33:03.298Z,45.48
2022-08-30T11:35:39.045Z,46.00
2022-08-30T11:38:18.500Z,46.06
2022-08-30T11:40:51.845Z,45.97
2022-08-30T11:43:31.894Z,46.86
2022-08-30T11:46:17.105Z,47.15
2022-08-30T11:48:55.192Z,48.42
2022-08-30T11:51:44.079Z,47.87
2022-08-30T11:54:24.084Z,49.51
2022-08-30T11:57:12.072Z,51.68
2022-08-30T11:59:47.318Z,52.78
2022-08-30T12:02:34.368Z,53.85
2022-08-30T12:05:02.427Z,55.14
2022-08-30T12:08:09.997Z,55.05
2022-08-30T12:10:43.464Z,55.94
2022-08-30T12:13:32.395Z,56.07
2022-08-30T12:16:09.421Z,55.26
2022-08-30T12:18:46.705Z,56.94
2022-08-30T12:21:15.747Z,59.59
2022-08-30T12:23:57.890Z,59.66
2022-08-30T12:26:25.995Z,61.58
2022-08-30T12:29:06.200Z,61.00
2022-08-30T12:31:40.780Z,61.58
2022-08-30T12:34:09.508Z,61.22
2022-08-30T12:36:39.586Z,61.95
2022-08-30T12:39:16.055Z,63.56
2022-08-30T12:41:44.584Z,63.66
2022-08-30T12:44:19.443Z,63.58
2022-08-30T12:46:49.801Z,63.76
2022-08-30T12:49:18.675Z,64.07
2022-08-30T12:51:46.916Z,64.40
2022-08-30T12:54:28.191Z,64.25
2022-08-30T12:57:18.991Z,64.83
2022-08-30T12:59:59.307Z,65.00
2022-08-30T13:02:47.531Z,64.78
2022-08-30T13:05:34.533Z,64.63
2022-08-30T13:08:28.712Z,65.25
2022-08-30T13:11:05.802Z,65.29
2022-08-30T13:13:44.624Z,65.06
2022-08-30T13:16:17.286Z,64.81
2022-08-30T13:18:47.816Z,64.86
2022-08-30T13:21:25.288Z,65.32
2022-08-30T13:24:01.600Z,65.32
2022-08-30T13:26:37.508Z,65.01
2022-08-30T13:29:14.443Z,65.24
2022-08-30T13:31:42.643Z,65.91
2022-08-30T13:34:12.023Z,66.34
2022-08-30T13:36:46.032Z,66.29
2022-08-30T13:39:14.747Z,66.41
2022-08-30T13:41:43.692Z,66.78
2022-08-30T13:44:13.116Z,66.80
2022-08-30T13:46:54.601Z,66.42
2022-08-30T13:49:45.663Z,67.11
2022-08-30T13:52:22.345Z,67.26
2022-08-30T13:54:51.745Z,67.17
2022-08-30T14:00:12.386Z,67.53
2022-08-30T14:02:46.382Z,67.48
2022-08-30T14:05:46.975Z,67.88
2022-08-30T14:08:05.178Z,67.60
2022-08-30T14:10:37.850Z,67.21
2022-08-30T14:13:14.122Z,67.59
2022-08-30T14:15:42.426Z,68.26
2022-08-30T14:18:13.571Z,69.41
2022-08-30T14:20:45.434Z,68.98
2022-08-30T14:23:13.979Z,68.46
2022-08-30T14:25:41.956Z,69.20
2022-08-30T14:28:10.391Z,69.02
2022-08-30T14:30:39.287Z,68.97
2022-08-30T14:33:07.401Z,69.03
2022-08-30T14:35:37.215Z,68.53
2022-08-30T14:38:07.120Z,69.80
2022-08-30T14:40:39.383Z,70.75
2022-08-30T14:43:07.711Z,69.67
2022-08-30T14:45:37.867Z,67.70
2022-08-30T14:48:11.534Z,67.52
2022-08-30T14:50:41.109Z,68.72
2022-08-30T14:53:09.180Z,69.23
2022-08-30T14:55:37.355Z,69.11
2022-08-30T14:58:07.521Z,69.50
2022-08-30T15:00:35.482Z,69.21
2022-08-30T15:03:04.152Z,68.65
2022-08-30T15:05:32.572Z,68.96
2022-08-30T15:08:00.899Z,69.22
2022-08-30T15:10:28.961Z,69.11
2022-08-30T15:12:57.035Z,68.81
2022-08-30T15:15:25.416Z,68.35
2022-08-30T15:17:53.407Z,68.19
2022-08-30T15:20:21.528Z,67.93
2022-08-30T15:22:49.353Z,67.70
2022-08-30T15:25:17.581Z,67.64
2022-08-30T15:27:45.834Z,66.15
2022-08-30T15:30:17.344Z,65.58
2022-08-30T15:32:48.267Z,66.45
2022-08-30T15:35:16.554Z,66.68
2022-08-30T15:37:44.518Z,67.59
2022-08-30T15:40:12.564Z,67.73
2022-08-30T15:42:41.095Z,67.89
2022-08-30T15:45:10.779Z,68.30
2022-08-30T15:47:39.045Z,67.71
2022-08-30T15:50:08.808Z,67.20
2022-08-30T15:52:36.853Z,66.70
2022-08-30T15:55:05.103Z,66.77
2022-08-30T15:57:32.947Z,66.93
2022-08-30T16:00:01.463Z,66.68
2022-08-30T16:02:32.950Z,66.59
2022-08-30T16:05:03.951Z,67.19
2022-08-30T16:07:31.885Z,67.72
2022-08-30T16:09:59.736Z,67.63
2022-08-30T16:12:27.588Z,67.24
2022-08-30T16:14:55.379Z,66.95
2022-08-30T16:17:24.251Z,67.04
2022-08-30T16:19:55.661Z,67.38
2022-08-30T16:22:26.679Z,67.28
2022-08-30T16:24:54.628Z,67.62
2022-08-30T16:27:25.206Z,67.84
2022-08-30T16:29:53.073Z,67.94
2022-08-30T16:32:22.476Z,68.15
2022-08-30T16:34:51.778Z,68.52
2022-08-30T16:37:19.836Z,68.44
2022-08-30T16:39:47.959Z,67.84
2022-08-30T16:42:21.324Z,67.45
2022-08-30T16:44:49.804Z,67.55
2022-08-30T16:47:17.908Z,67.74
2022-08-30T16:49:46.149Z,68.51
2022-08-30T16:52:14.161Z,68.82
2022-08-30T16:54:42.046Z,69.44
2022-08-30T16:57:09.969Z,69.47
2022-08-30T16:59:37.893Z,69.87
2022-08-30T17:02:05.829Z,70.05
2022-08-30T17:04:34.000Z,70.25
2022-08-30T17:07:01.849Z,70.28
2022-08-30T17:09:30.531Z,70.35
2022-08-30T17:11:59.115Z,70.57
2022-08-30T17:14:29.370Z,70.65
2022-08-30T17:16:58.637Z,70.54
2022-08-30T17:19:28.994Z,70.53
2022-08-30T17:21:58.165Z,70.77
2022-08-30T17:24:27.194Z,70.80
2022-08-30T17:26:55.679Z,70.93
2022-08-30T17:29:23.894Z,70.95
2022-08-30T17:31:52.164Z,70.83
2022-08-30T17:34:21.982Z,71.07
2022-08-30T17:36:51.625Z,71.37
2022-08-30T17:39:19.556Z,71.59
2022-08-30T17:41:50.227Z,71.56
2022-08-30T17:44:19.732Z,71.33
2022-08-30T17:46:47.800Z,71.27
2022-08-30T17:49:16.164Z,71.42
2022-08-30T17:51:47.741Z,72.14
2022-08-30T17:54:16.227Z,72.12
2022-08-30T17:56:45.800Z,72.10
2022-08-30T17:59:17.800Z,72.48
2022-08-30T18:01:46.008Z,72.58
2022-08-30T18:04:19.637Z,72.67
2022-08-30T18:06:48.272Z,72.83
2022-08-30T18:09:17.754Z,72.87
2022-08-30T18:11:45.820Z,73.00
2022-08-30T18:14:16.750Z,73.16
2022-08-30T18:16:50.271Z,73.21
2022-08-30T18:19:24.061Z,73.53
2022-08-30T18:21:55.464Z,73.63
2022-08-30T18:24:23.847Z,73.79
2022-08-30T18:26:54.798Z,73.77
2022-08-30T18:29:29.237Z,73.83
2022-08-30T18:32:00.350Z,73.93
2022-08-30T18:34:28.667Z,73.97
2022-08-30T18:36:57.056Z,74.13
2022-08-30T18:39:25.119Z,74.24
2022-08-30T18:41:55.496Z,74.29
2022-08-30T18:44:28.192Z,74.22
2022-08-30T18:47:00.142Z,74.51
2022-08-30T18:49:32.372Z,74.86
2022-08-30T18:52:02.135Z,74.95
2022-08-30T18:54:30.999Z,74.98
2022-08-30T18:56:59.238Z,75.02
2022-08-30T18:59:35.459Z,75.06
2022-08-30T19:02:09.466Z,75.01
2022-08-30T19:04:38.299Z,75.34
2022-08-30T19:07:07.272Z,75.45
2022-08-30T19:09:35.600Z,75.38
2022-08-30T19:12:07.742Z,75.43
2022-08-30T19:14:37.736Z,75.44
2022-08-30T19:17:07.476Z,75.45
2022-08-30T19:19:47.370Z,75.52
2022-08-30T19:22:27.430Z,75.56
2022-08-30T19:24:58.711Z,75.65
2022-08-30T19:27:37.153Z,75.57
2022-08-30T19:30:07.956Z,75.58
2022-08-30T19:32:36.277Z,75.73
2022-08-30T19:35:04.528Z,75.74
2022-08-30T19:37:34.313Z,75.70
2022-08-30T19:40:07.442Z,75.82
2022-08-30T19:42:38.451Z,75.70
2022-08-30T19:45:13.880Z,75.57
2022-08-30T19:47:41.780Z,75.46
2022-08-30T19:50:10.002Z,75.30
2022-08-30T19:52:38.334Z,75.79
2022-08-30T19:55:07.435Z,75.58
2022-08-30T19:57:36.497Z,75.54
2022-08-30T20:00:09.289Z,75.64
2022-08-30T20:02:40.521Z,76.36
2022-08-30T20:05:09.424Z,75.92
2022-08-30T20:07:38.646Z,75.53
2022-08-30T20:10:11.830Z,75.89
2022-08-30T20:12:45.129Z,76.27
2022-08-30T20:15:15.355Z,76.44
2022-08-30T20:18:02.784Z,76.64
2022-08-30T20:20:36.256Z,77.20
2022-08-30T20:23:05.382Z,77.32
2022-08-30T20:25:34.882Z,77.19
2022-08-30T20:28:04.016Z,76.96
2022-08-30T20:30:32.385Z,76.88
2022-08-30T20:33:06.355Z,76.95
2022-08-30T20:35:35.145Z,76.81
2022-08-30T20:38:06.653Z,76.51
2022-08-30T20:40:37.272Z,76.59
2022-08-30T20:43:06.064Z,76.24
2022-08-30T20:45:34.325Z,76.35
2022-08-30T20:48:03.402Z,77.98
2022-08-30T20:50:31.595Z,77.52
2022-08-30T20:52:59.919Z,77.28
2022-08-30T20:55:28.370Z,77.17
2022-08-30T20:57:57.054Z,77.15
2022-08-30T21:00:25.044Z,77.05
2022-08-30T21:02:54.687Z,76.98
2022-08-30T21:05:23.012Z,76.83
2022-08-30T21:07:50.852Z,76.99
2022-08-30T21:10:23.194Z,77.04
2022-08-30T21:12:52.059Z,76.84
2022-08-30T21:15:36.907Z,76.63
2022-08-30T21:18:06.030Z,76.57
2022-08-30T21:20:34.048Z,76.60
2022-08-30T21:23:01.969Z,76.43
2022-08-30T21:25:33.362Z,76.39
2022-08-30T21:28:01.322Z,76.52
2022-08-30T21:30:29.452Z,76.60
2022-08-30T21:33:00.066Z,76.63
2022-08-30T21:35:47.284Z,76.59
2022-08-30T21:38:15.535Z,76.35
2022-08-30T21:40:43.675Z,76.51
2022-08-30T21:43:12.070Z,76.71
2022-08-30T21:45:41.208Z,76.77
2022-08-30T21:48:10.309Z,76.97
2022-08-30T21:50:39.197Z,77.41
2022-08-30T21:53:07.237Z,77.32
2022-08-30T21:55:38.169Z,77.18
2022-08-30T21:58:06.079Z,77.41
2022-08-30T22:00:34.009Z,77.29
2022-08-30T22:03:01.918Z,77.39
2022-08-30T22:05:30.094Z,77.54
2022-08-30T22:07:57.929Z,77.48
2022-08-30T22:10:29.004Z,77.36
2022-08-30T22:12:59.299Z,77.45
2022-08-30T22:15:27.685Z,77.61
2022-08-30T22:17:55.755Z,77.77
2022-08-30T22:20:24.126Z,77.72
2022-08-30T22:22:52.118Z,77.58
2022-08-30T22:25:20.169Z,77.40
2022-08-30T22:27:48.215Z,77.33
2022-08-30T22:30:17.747Z,77.48
2022-08-30T22:32:45.581Z,77.92
2022-08-30T22:35:13.991Z,78.25
2022-08-30T22:37:47.570Z,78.22
2022-08-30T22:40:16.313Z,77.99
2022-08-30T22:42:45.060Z,77.72
2022-08-30T22:45:16.456Z,77.58
2022-08-30T22:47:44.693Z,77.54
2022-08-30T22:50:13.385Z,77.62
2022-08-30T22:52:41.491Z,77.64
2022-08-30T22:55:09.352Z,77.63
2022-08-30T22:57:38.009Z,77.65
2022-08-30T23:00:12.606Z,78.09
2022-08-30T23:02:41.612Z,77.86
2022-08-30T23:05:09.873Z,77.68
2022-08-30T23:07:37.894Z,77.71
2022-08-30T23:10:06.664Z,77.70
2022-08-30T23:12:37.047Z,77.99
2022-08-30T23:15:06.164Z,78.09
2022-08-30T23:17:39.666Z,78.37
2022-08-30T23:20:08.473Z,78.54
2022-08-30T23:22:36.749Z,78.53
2022-08-30T23:25:24.380Z,78.68
2022-08-30T23:28:11.885Z,78.76
2022-08-30T23:31:05.383Z,78.83
2022-08-30T23:33:51.508Z,78.92
2022-08-30T23:36:37.872Z,79.66
2022-08-30T23:39:24.408Z,79.84
2022-08-30T23:42:10.722Z,79.80
2022-08-30T23:44:57.287Z,79.69
2022-08-30T23:47:43.804Z,79.62
2022-08-30T23:50:30.335Z,79.82
2022-08-30T23:53:17.040Z,79.82
2022-08-30T23:56:03.610Z,79.77
2022-08-30T23:58:50.008Z,79.87
